Strona główna
METAR-TAF:

METAR-TAF

Lotnisko :

Port lotniczy Larnaka

Larnaka, Cypr

Szerokość geograficzna: 34-53N, Długość geograficzna: 033-38E, wysokość: 2 m

Aktualna obserwacja pogody

Raport powstał 38 minut temu, godzina 06:30 UTC
Wiatr 6 kt od południe
Temperatura 31°C
Wilgotność 55%
Ciśnienie 1007 hPa
Widzialność 10 km lub więcej
Brak chmur poniżej 1500 m i brak chmur cumulonimbus

METAR: LCLK 210630Z 17006KT CAVOK 31/21 Q1007 NOSIG

czas: 10:08 (07:08 UTC)

Prognoza

Raport powstał 1 godzina i 38 minut temu, godzina 05:30 UTC
Prognoza ważna od 21 godzina 06 UTC do 22 godzina 06 UTC
Wiatr 8 kt od południowy wschód
Widzialność 10 km lub więcej
Mało chmury na wysokości 3000 ft
Stopniowe zmiany
od 21 godzina 10 UTC do 21 godzina 13 UTC
Wiatr 20 kt od południowy zachód
Stopniowe zmiany
od 21 godzina 16 UTC do 21 godzina 19 UTC
Wiatr 9 kt od północny zachód

TAF: LCLK 210530Z 2106/2206 14008KT 9999 FEW030 BECMG 2110/2113 22020KT BECMG 2116/2119 31009KT

Obserwacja i prognoza pogody dla ponad 4000 lotnisk (raport METAR i TAF).

Dostępne stacje oznaczono żółtymi i czerwonymi punktami na mapie.

Najedź kursorem aby zobaczyć nazwę stacji.

Kliknij aby zobaczyć obserwacje i prognozy pogody.

Aby zmienić mapę: kliknij na zielony przycisk z czarnym krzyżykiem, aby powiększyć; na zielony przycisk z myślnikiem, aby pomniejszyć; na zielone strzałki, aby przejść do map sąsiednich.


METAR-TAF: